createdAt,value
2019-02-15T00:01:59.172Z,99.90
2019-02-15T00:04:30.218Z,99.90
2019-02-15T00:07:01.222Z,99.90
2019-02-15T00:09:32.263Z,99.90
2019-02-15T00:12:03.340Z,99.90
2019-02-15T00:14:49.186Z,99.90
2019-02-15T00:17:21.877Z,99.90
2019-02-15T00:19:54.420Z,99.90
2019-02-15T00:22:25.423Z,99.90
2019-02-15T00:24:56.488Z,99.90
2019-02-15T00:27:27.622Z,99.90
2019-02-15T00:29:58.706Z,99.90
2019-02-15T00:32:29.791Z,99.90
2019-02-15T00:35:00.856Z,99.90
2019-02-15T00:37:31.904Z,99.90
2019-02-15T00:40:02.987Z,99.90
2019-02-15T00:42:34.020Z,99.90
2019-02-15T00:45:06.604Z,99.90
2019-02-15T00:47:39.214Z,99.90
2019-02-15T00:50:26.652Z,99.90
2019-02-15T00:53:08.359Z,99.90
2019-02-15T00:55:40.998Z,99.90
2019-02-15T00:58:19.635Z,99.90
2019-02-15T01:00:59.408Z,99.90
2019-02-15T01:03:40.636Z,99.90
2019-02-15T01:06:16.002Z,99.90
2019-02-15T01:08:54.695Z,99.90
2019-02-15T01:11:27.343Z,99.90
2019-02-15T01:13:58.383Z,99.90
2019-02-15T01:16:29.502Z,99.90
2019-02-15T01:19:00.578Z,99.90
2019-02-15T01:21:31.620Z,99.90
2019-02-15T01:24:02.697Z,99.90
2019-02-15T01:26:35.409Z,99.90
2019-02-15T01:29:24.120Z,99.90
2019-02-15T01:31:56.733Z,99.90
2019-02-15T01:34:41.145Z,99.90
2019-02-15T01:37:19.845Z,99.90
2019-02-15T01:40:07.543Z,99.90
2019-02-15T01:42:46.206Z,99.90
2019-02-15T01:45:18.848Z,99.90
2019-02-15T01:47:49.849Z,99.90
2019-02-15T01:50:20.852Z,99.90
2019-02-15T01:52:51.895Z,99.90
2019-02-15T01:55:22.961Z,99.90
2019-02-15T01:57:54.007Z,99.90
2019-02-15T02:00:26.646Z,99.90
2019-02-15T02:02:57.694Z,99.90
2019-02-15T02:05:28.765Z,99.90
2019-02-15T02:07:59.908Z,99.90
2019-02-15T02:10:30.974Z,99.90
2019-02-15T02:13:02.040Z,99.90
2019-02-15T02:15:33.048Z,99.90
2019-02-15T02:18:04.086Z,99.90
2019-02-15T02:20:35.161Z,99.90
2019-02-15T02:23:06.198Z,99.90
2019-02-15T02:25:37.274Z,99.90
2019-02-15T02:28:08.395Z,99.90
2019-02-15T02:30:39.477Z,99.90
2019-02-15T02:33:10.544Z,99.90
2019-02-15T02:35:41.656Z,99.90
2019-02-15T02:38:12.732Z,99.90
2019-02-15T02:40:43.860Z,99.90
2019-02-15T02:43:14.925Z,99.90
2019-02-15T02:45:45.977Z,99.90
2019-02-15T02:48:17.065Z,99.90
2019-02-15T02:50:48.107Z,99.90
2019-02-15T02:53:19.179Z,99.90
2019-02-15T02:55:50.224Z,99.90
2019-02-15T02:58:21.301Z,99.90
2019-02-15T03:00:52.355Z,99.90
2019-02-15T03:03:23.429Z,99.90
2019-02-15T03:05:54.476Z,99.90
2019-02-15T03:08:25.549Z,99.90
2019-02-15T03:10:56.617Z,99.90
2019-02-15T03:13:27.677Z,99.90
2019-02-15T03:15:58.717Z,99.90
2019-02-15T03:18:29.798Z,99.90
2019-02-15T03:21:00.838Z,99.90
2019-02-15T03:23:31.959Z,99.90
2019-02-15T03:26:03.044Z,99.90
2019-02-15T03:28:35.119Z,99.90
2019-02-15T03:31:06.194Z,99.90
2019-02-15T03:33:38.818Z,99.90
2019-02-15T03:36:11.526Z,99.90
2019-02-15T03:38:44.165Z,99.90
2019-02-15T03:41:19.804Z,99.90
2019-02-15T03:43:50.800Z,99.90
2019-02-15T03:46:21.839Z,99.90
2019-02-15T03:48:52.904Z,99.90
2019-02-15T03:51:23.982Z,99.90
2019-02-15T03:53:55.023Z,99.90
2019-02-15T03:56:26.113Z,99.90
2019-02-15T03:58:57.136Z,99.90
2019-02-15T04:01:28.146Z,99.90
2019-02-15T04:03:59.206Z,99.90
2019-02-15T04:06:30.348Z,99.90
2019-02-15T04:09:01.457Z,99.90
2019-02-15T04:11:33.929Z,99.90
2019-02-15T04:14:04.964Z,99.90
2019-02-15T04:16:36.086Z,99.90
2019-02-15T04:19:07.212Z,99.90
2019-02-15T04:21:38.278Z,99.90
2019-02-15T04:24:09.325Z,99.90
2019-02-15T04:26:40.399Z,99.90
2019-02-15T04:29:11.461Z,99.90
2019-02-15T04:31:42.594Z,99.90
2019-02-15T04:34:13.641Z,99.90
2019-02-15T04:36:44.742Z,99.90
2019-02-15T04:39:15.892Z,99.90
2019-02-15T04:41:47.001Z,99.90
2019-02-15T04:44:18.134Z,99.90
2019-02-15T04:46:50.167Z,99.90
2019-02-15T04:49:21.348Z,99.90
2019-02-15T04:51:52.474Z,99.90
2019-02-15T04:54:23.562Z,99.90
2019-02-15T04:56:54.546Z,99.90
2019-02-15T04:59:25.628Z,99.90
2019-02-15T05:01:56.704Z,99.90
2019-02-15T05:04:27.793Z,99.90
2019-02-15T05:06:58.849Z,99.90
2019-02-15T05:09:29.932Z,99.90
2019-02-15T05:12:00.983Z,99.90
2019-02-15T05:14:32.067Z,99.90
2019-02-15T05:17:03.055Z,99.90
2019-02-15T05:19:34.143Z,99.90
2019-02-15T05:22:05.192Z,99.90
2019-02-15T05:24:36.291Z,99.90
2019-02-15T05:27:07.363Z,99.90
2019-02-15T05:29:38.444Z,99.90
2019-02-15T05:32:10.218Z,99.90
2019-02-15T05:34:41.298Z,99.90
2019-02-15T05:37:12.392Z,99.90
2019-02-15T05:39:43.381Z,99.90
2019-02-15T05:42:14.452Z,99.90
2019-02-15T05:44:45.510Z,99.90
2019-02-15T05:47:16.695Z,99.90
2019-02-15T05:49:47.773Z,99.90
2019-02-15T05:52:18.823Z,99.90
2019-02-15T05:54:49.894Z,99.90
2019-02-15T05:57:20.966Z,99.90
2019-02-15T05:59:52.011Z,99.90
2019-02-15T06:02:23.090Z,99.90
2019-02-15T06:04:54.147Z,99.90
2019-02-15T06:07:25.308Z,99.90
2019-02-15T06:09:56.416Z,99.90
2019-02-15T06:12:27.492Z,99.90
2019-02-15T06:14:58.457Z,99.90
2019-02-15T06:17:29.537Z,99.90
2019-02-15T06:20:00.578Z,99.90
2019-02-15T06:22:31.649Z,99.90
2019-02-15T06:25:02.676Z,99.90
2019-02-15T06:27:33.752Z,99.90
2019-02-15T06:30:05.597Z,99.90
2019-02-15T06:32:36.678Z,99.90
2019-02-15T06:35:07.713Z,99.90
2019-02-15T06:37:38.781Z,99.90
2019-02-15T06:40:09.830Z,99.90
2019-02-15T06:42:40.921Z,99.90
2019-02-15T06:45:12.042Z,99.90
2019-02-15T06:47:43.102Z,99.90
2019-02-15T06:50:14.170Z,99.90
2019-02-15T06:52:45.210Z,99.90
2019-02-15T06:55:16.428Z,99.90
2019-02-15T06:57:47.517Z,99.90
2019-02-15T07:00:20.165Z,99.90
2019-02-15T07:02:55.424Z,99.90
2019-02-15T07:05:26.201Z,99.90
2019-02-15T07:07:57.242Z,99.90
2019-02-15T07:10:28.323Z,99.90
2019-02-15T07:12:59.372Z,99.90
2019-02-15T07:15:33.673Z,99.90
2019-02-15T07:18:03.155Z,99.90
2019-02-15T07:20:34.230Z,99.90
2019-02-15T07:23:05.270Z,99.90
2019-02-15T07:25:36.284Z,99.90
2019-02-15T07:28:07.341Z,99.90
2019-02-15T07:30:38.409Z,99.90
2019-02-15T07:33:09.551Z,99.90
2019-02-15T07:35:40.675Z,99.90
2019-02-15T07:38:11.756Z,99.90
2019-02-15T07:40:42.813Z,99.90
2019-02-15T07:43:13.829Z,99.90
2019-02-15T07:45:44.919Z,99.90
2019-02-15T07:48:15.968Z,99.90
2019-02-15T07:50:47.028Z,99.90
2019-02-15T07:53:18.084Z,99.90
2019-02-15T07:55:49.181Z,99.90
2019-02-15T07:58:20.246Z,99.90
2019-02-15T08:00:51.330Z,99.90
2019-02-15T08:03:22.381Z,99.90
2019-02-15T08:05:53.513Z,99.90
2019-02-15T08:08:24.609Z,99.90
2019-02-15T08:10:55.756Z,99.90
2019-02-15T08:13:26.904Z,99.90
2019-02-15T08:15:58.074Z,99.90
2019-02-15T08:18:29.157Z,99.90
2019-02-15T08:21:00.275Z,99.90
2019-02-15T08:23:31.404Z,99.90
2019-02-15T08:26:02.555Z,99.90
2019-02-15T08:28:33.886Z,99.90
2019-02-15T08:31:05.020Z,99.90
2019-02-15T08:33:36.110Z,99.90
2019-02-15T08:36:07.208Z,99.90
2019-02-15T08:38:38.328Z,99.90
2019-02-15T08:41:10.928Z,99.90
2019-02-15T08:43:41.981Z,99.90
2019-02-15T08:46:12.999Z,99.90
2019-02-15T08:48:46.491Z,99.90
2019-02-15T08:51:17.052Z,99.90
2019-02-15T08:53:50.306Z,99.90
2019-02-15T08:56:20.845Z,99.90
2019-02-15T08:58:51.910Z,99.90
2019-02-15T09:01:22.942Z,99.90
2019-02-15T09:03:53.995Z,99.90
2019-02-15T09:06:25.024Z,99.90
2019-02-15T09:08:56.076Z,99.90
2019-02-15T09:11:27.108Z,99.90
2019-02-15T09:13:58.169Z,99.90
2019-02-15T09:16:29.276Z,99.90
2019-02-15T09:19:00.257Z,99.90
2019-02-15T09:21:31.288Z,99.90
2019-02-15T09:24:02.355Z,99.90
2019-02-15T09:26:33.388Z,99.90
2019-02-15T09:29:05.724Z,99.90
2019-02-15T09:31:36.787Z,99.90
2019-02-15T09:34:07.752Z,99.90
2019-02-15T09:36:38.892Z,99.90
2019-02-15T09:39:09.914Z,99.90
2019-02-15T09:41:41.078Z,99.90
2019-02-15T09:44:12.099Z,99.90
2019-02-15T09:46:43.155Z,99.90
2019-02-15T09:49:14.178Z,99.90
2019-02-15T09:51:45.261Z,99.90
2019-02-15T09:54:16.288Z,99.90
2019-02-15T09:56:47.539Z,99.90
2019-02-15T09:59:18.568Z,99.90
2019-02-15T10:01:49.613Z,99.90
2019-02-15T10:04:20.635Z,99.90
2019-02-15T10:06:51.723Z,99.90
2019-02-15T10:09:22.748Z,99.90
2019-02-15T10:11:53.804Z,99.90
2019-02-15T10:14:24.826Z,99.90
2019-02-15T10:16:55.808Z,99.90
2019-02-15T10:19:26.881Z,99.90
2019-02-15T10:21:57.905Z,99.90
2019-02-15T10:24:28.964Z,99.90
2019-02-15T10:26:59.983Z,99.90
2019-02-15T10:29:31.158Z,99.90
2019-02-15T10:32:02.303Z,99.90
2019-02-15T10:34:33.363Z,99.90
2019-02-15T10:37:04.392Z,99.90
2019-02-15T10:39:35.464Z,99.90
2019-02-15T10:42:06.606Z,90.70
2019-02-15T10:44:37.693Z,64.30
2019-02-15T10:47:14.358Z,49.30
2019-02-15T10:49:41.515Z,42.10
2019-02-15T10:52:12.531Z,38.00
2019-02-15T10:54:43.575Z,34.90
2019-02-15T10:57:14.767Z,31.80
2019-02-15T10:59:45.916Z,32.80
2019-02-15T11:02:16.926Z,34.70
2019-02-15T11:04:48.081Z,32.00
2019-02-15T11:07:19.158Z,31.10
2019-02-15T11:09:50.217Z,32.10
2019-02-15T11:12:21.219Z,30.20
2019-02-15T11:14:52.259Z,32.10
2019-02-15T11:17:23.294Z,31.40
2019-02-15T11:19:54.304Z,28.70
2019-02-15T11:22:25.352Z,29.30
2019-02-15T11:24:56.358Z,29.10
2019-02-15T11:27:27.388Z,30.80
2019-02-15T11:29:58.401Z,30.00
2019-02-15T11:32:29.430Z,29.50
2019-02-15T11:35:00.468Z,29.30
2019-02-15T11:37:31.556Z,29.00
2019-02-15T11:40:02.571Z,28.40
2019-02-15T11:42:33.614Z,29.60
2019-02-15T11:45:06.516Z,27.60
2019-02-15T11:47:37.489Z,28.40
2019-02-15T11:50:12.117Z,27.50
2019-02-15T11:52:43.360Z,27.20
2019-02-15T11:55:14.367Z,26.90
2019-02-15T11:57:45.407Z,27.80
2019-02-15T12:00:28.261Z,27.30
2019-02-15T12:02:59.298Z,26.60
2019-02-15T12:05:30.304Z,26.40
2019-02-15T12:08:01.347Z,26.00
2019-02-15T12:10:32.355Z,25.40
2019-02-15T12:13:03.389Z,24.90
2019-02-15T12:15:34.422Z,25.50
2019-02-15T12:18:06.065Z,25.50
2019-02-15T12:20:37.088Z,25.30
2019-02-15T12:23:08.104Z,25.40
2019-02-15T12:25:39.143Z,25.00
2019-02-15T12:28:10.150Z,25.00
2019-02-15T12:30:41.191Z,24.70
2019-02-15T12:33:12.197Z,24.70
2019-02-15T12:35:43.231Z,24.90
2019-02-15T12:38:14.172Z,24.30
2019-02-15T12:40:45.141Z,23.80
2019-02-15T12:43:16.154Z,24.10
2019-02-15T12:45:47.197Z,24.30
2019-02-15T12:48:18.208Z,23.70
2019-02-15T12:50:49.297Z,23.20
2019-02-15T12:53:20.226Z,22.70
2019-02-15T12:55:51.266Z,23.10
2019-02-15T12:58:22.301Z,23.20
2019-02-15T13:00:53.301Z,22.80
2019-02-15T13:03:24.300Z,22.30
2019-02-15T13:05:55.309Z,22.10
2019-02-15T13:08:26.406Z,22.80
2019-02-15T13:10:57.406Z,22.20
2019-02-15T13:13:28.445Z,22.30
2019-02-15T13:15:59.449Z,22.40
2019-02-15T13:18:30.480Z,22.20
2019-02-15T13:21:01.491Z,22.30
2019-02-15T13:23:32.524Z,22.40
2019-02-15T13:26:08.642Z,22.50
2019-02-15T13:28:37.201Z,22.60
2019-02-15T13:31:08.208Z,23.00
2019-02-15T13:33:39.248Z,22.20
2019-02-15T13:36:10.285Z,23.20
2019-02-15T13:38:41.321Z,22.50
2019-02-15T13:41:12.263Z,22.50
2019-02-15T13:43:43.300Z,22.00
2019-02-15T13:46:14.307Z,21.60
2019-02-15T13:48:45.231Z,22.10
2019-02-15T13:51:16.212Z,22.00
2019-02-15T13:53:47.267Z,21.20
2019-02-15T13:56:18.300Z,20.50
2019-02-15T13:58:49.234Z,20.40
2019-02-15T14:01:20.494Z,20.60
2019-02-15T14:03:51.445Z,20.00
2019-02-15T14:06:22.480Z,20.60
2019-02-15T14:08:53.477Z,20.50
2019-02-15T14:11:24.544Z,20.70
2019-02-15T14:13:55.610Z,21.20
2019-02-15T14:16:26.648Z,22.20
2019-02-15T14:18:57.658Z,22.20
2019-02-15T14:21:28.691Z,22.50
2019-02-15T14:23:59.678Z,22.50
2019-02-15T14:26:30.707Z,22.30
2019-02-15T14:29:01.726Z,22.70
2019-02-15T14:31:32.771Z,23.00
2019-02-15T14:34:04.774Z,24.00
2019-02-15T14:36:35.821Z,23.40
2019-02-15T14:39:09.418Z,23.90
2019-02-15T14:41:40.455Z,23.80
2019-02-15T14:44:11.455Z,24.20
2019-02-15T14:46:42.493Z,24.20
2019-02-15T14:49:13.505Z,24.50
2019-02-15T14:51:44.550Z,24.10
2019-02-15T14:54:15.629Z,24.20
2019-02-15T14:56:46.636Z,24.50
2019-02-15T14:59:17.728Z,24.80
2019-02-15T15:01:48.784Z,24.80
2019-02-15T15:04:19.826Z,24.90
2019-02-15T15:06:50.825Z,25.40
2019-02-15T15:09:21.890Z,25.60
2019-02-15T15:11:53.005Z,25.90
2019-02-15T15:14:24.117Z,26.00
2019-02-15T15:16:55.132Z,26.30
2019-02-15T15:19:26.174Z,26.30
2019-02-15T15:21:57.253Z,26.50
2019-02-15T15:24:28.583Z,26.80
2019-02-15T15:26:59.670Z,27.30
2019-02-15T15:29:30.715Z,27.40
2019-02-15T15:32:01.721Z,27.90
2019-02-15T15:34:32.767Z,28.40
2019-02-15T15:37:03.782Z,28.80
2019-02-15T15:39:34.818Z,29.20
2019-02-15T15:42:05.821Z,29.80
2019-02-15T15:44:36.864Z,30.60
2019-02-15T15:47:08.175Z,30.10
2019-02-15T15:49:39.190Z,30.90
2019-02-15T15:52:10.226Z,31.60
2019-02-15T15:54:41.235Z,31.60
2019-02-15T15:57:12.212Z,32.10
2019-02-15T15:59:43.223Z,33.90
2019-02-15T16:02:14.290Z,35.80
2019-02-15T16:04:45.518Z,37.10
2019-02-15T16:07:16.575Z,39.50
2019-02-15T16:09:47.606Z,40.10
2019-02-15T16:12:18.727Z,41.10
2019-02-15T16:14:49.812Z,42.20
2019-02-15T16:17:21.183Z,43.40
2019-02-15T16:19:52.226Z,44.30
2019-02-15T16:22:23.293Z,45.70
2019-02-15T16:24:55.332Z,46.40
2019-02-15T16:27:26.534Z,47.50
2019-02-15T16:29:57.662Z,48.90
2019-02-15T16:32:28.733Z,49.60
2019-02-15T16:34:59.784Z,50.60
2019-02-15T16:37:30.841Z,51.70
2019-02-15T16:40:01.877Z,52.30
2019-02-15T16:42:32.935Z,53.80
2019-02-15T16:45:05.285Z,54.60
2019-02-15T16:47:36.501Z,55.40
2019-02-15T16:50:09.166Z,56.50
2019-02-15T16:52:40.156Z,57.40
2019-02-15T16:55:13.159Z,58.30
2019-02-15T16:57:44.243Z,59.40
2019-02-15T17:00:16.129Z,64.80
2019-02-15T17:02:47.224Z,62.00
2019-02-15T17:05:21.159Z,61.90
2019-02-15T17:07:52.233Z,63.70
2019-02-15T17:10:23.341Z,66.10
2019-02-15T17:12:54.411Z,69.00
2019-02-15T17:15:25.596Z,72.50
2019-02-15T17:17:56.777Z,74.50
2019-02-15T17:20:27.809Z,77.80
2019-02-15T17:22:58.865Z,79.90
2019-02-15T17:25:29.925Z,82.10
2019-02-15T17:28:00.915Z,85.00
2019-02-15T17:30:31.995Z,90.70
2019-02-15T17:33:03.102Z,94.20
2019-02-15T17:35:34.162Z,99.90
2019-02-15T17:38:05.250Z,99.90
2019-02-15T17:40:36.327Z,99.90
2019-02-15T17:43:07.546Z,99.90
2019-02-15T17:45:39.633Z,99.90
2019-02-15T17:48:10.688Z,99.90
2019-02-15T17:50:41.749Z,99.90
2019-02-15T17:53:12.786Z,99.90
2019-02-15T17:55:43.842Z,99.90
2019-02-15T17:58:15.866Z,99.90
2019-02-15T18:00:46.984Z,99.90
2019-02-15T18:03:18.420Z,99.90
2019-02-15T18:05:49.541Z,99.90
2019-02-15T18:08:20.569Z,99.90
2019-02-15T18:10:51.628Z,99.90
2019-02-15T18:13:22.658Z,99.90
2019-02-15T18:15:53.724Z,99.90
2019-02-15T18:18:24.763Z,99.90
2019-02-15T18:20:55.823Z,99.90
2019-02-15T18:23:26.875Z,99.90
2019-02-15T18:25:58.035Z,99.90
2019-02-15T18:28:29.086Z,99.90
2019-02-15T18:31:00.150Z,99.90
2019-02-15T18:33:31.193Z,99.90
2019-02-15T18:36:02.314Z,99.90
2019-02-15T18:38:33.341Z,99.90
2019-02-15T18:41:13.109Z,99.90
2019-02-15T18:43:37.329Z,99.90
2019-02-15T18:46:08.465Z,99.90
2019-02-15T18:48:41.977Z,99.90
2019-02-15T18:51:13.937Z,99.90
2019-02-15T18:53:45.010Z,99.90
2019-02-15T18:56:16.023Z,99.90
2019-02-15T18:58:47.148Z,99.90
2019-02-15T19:01:18.190Z,99.90
2019-02-15T19:03:49.256Z,99.90
2019-02-15T19:06:20.400Z,99.90
2019-02-15T19:08:51.601Z,99.90
2019-02-15T19:11:24.230Z,99.90
2019-02-15T19:13:55.291Z,99.90
2019-02-15T19:16:26.360Z,99.90
2019-02-15T19:18:57.385Z,99.90
2019-02-15T19:21:28.593Z,99.90
2019-02-15T19:23:59.795Z,99.90
2019-02-15T19:26:30.925Z,99.90
2019-02-15T19:29:01.994Z,99.90
2019-02-15T19:31:33.062Z,99.90
2019-02-15T19:34:04.104Z,99.90
2019-02-15T19:36:35.176Z,99.90
2019-02-15T19:39:07.706Z,99.90
2019-02-15T19:41:38.806Z,99.90
2019-02-15T19:44:10.039Z,99.90
2019-02-15T19:46:41.276Z,99.90
2019-02-15T19:49:12.421Z,99.90
2019-02-15T19:51:43.466Z,99.90
2019-02-15T19:54:14.511Z,99.90
2019-02-15T19:56:45.596Z,99.90
2019-02-15T19:59:16.709Z,99.90
2019-02-15T20:01:51.347Z,99.90
2019-02-15T20:04:22.455Z,99.90
2019-02-15T20:06:53.594Z,99.90
2019-02-15T20:09:24.667Z,99.90
2019-02-15T20:11:55.754Z,99.90
2019-02-15T20:14:27.129Z,99.90
2019-02-15T20:16:58.391Z,99.90
2019-02-15T20:19:31.211Z,99.90
2019-02-15T20:22:02.422Z,99.90
2019-02-15T20:24:33.648Z,99.90
2019-02-15T20:27:04.708Z,99.90
2019-02-15T20:29:36.173Z,99.90
2019-02-15T20:32:08.761Z,99.90
2019-02-15T20:34:45.294Z,99.90
2019-02-15T20:37:12.730Z,99.90
2019-02-15T20:39:43.902Z,99.90
2019-02-15T20:42:15.064Z,99.90
2019-02-15T20:44:46.135Z,99.90
2019-02-15T20:47:17.675Z,99.90
2019-02-15T20:49:57.492Z,99.90
2019-02-15T20:52:22.816Z,99.90
2019-02-15T20:54:53.927Z,99.90
2019-02-15T20:57:25.056Z,99.90
2019-02-15T20:59:56.289Z,99.90
2019-02-15T21:02:27.736Z,99.90
2019-02-15T21:04:58.839Z,99.90
2019-02-15T21:07:29.953Z,99.90
2019-02-15T21:10:01.026Z,99.90
2019-02-15T21:12:32.398Z,99.90
2019-02-15T21:15:03.715Z,99.90
2019-02-15T21:17:34.942Z,99.90
2019-02-15T21:20:11.925Z,99.90
2019-02-15T21:22:43.017Z,99.90
2019-02-15T21:25:16.918Z,99.90
2019-02-15T21:27:48.009Z,99.90
2019-02-15T21:30:20.591Z,99.90
2019-02-15T21:32:51.675Z,99.90
2019-02-15T21:35:22.828Z,99.90
2019-02-15T21:37:53.876Z,99.90
2019-02-15T21:40:24.973Z,99.90
2019-02-15T21:42:56.137Z,99.90
2019-02-15T21:45:27.189Z,99.90
2019-02-15T21:47:58.422Z,99.90
2019-02-15T21:50:29.601Z,99.90
2019-02-15T21:53:00.657Z,99.90
2019-02-15T21:55:33.204Z,99.90
2019-02-15T21:58:04.299Z,99.90
2019-02-15T22:00:35.702Z,99.90
2019-02-15T22:03:08.352Z,99.90
2019-02-15T22:05:39.444Z,99.90
2019-02-15T22:08:10.604Z,99.90
2019-02-15T22:10:41.684Z,99.90
2019-02-15T22:13:12.759Z,99.90
2019-02-15T22:15:43.850Z,99.90
2019-02-15T22:18:14.940Z,99.90
2019-02-15T22:20:45.990Z,99.90
2019-02-15T22:23:17.098Z,99.90
2019-02-15T22:25:48.181Z,99.90
2019-02-15T22:28:19.358Z,99.90
2019-02-15T22:30:50.454Z,99.90
2019-02-15T22:33:21.579Z,99.90
2019-02-15T22:35:52.792Z,99.90
2019-02-15T22:38:23.863Z,99.90
2019-02-15T22:41:05.272Z,99.90
2019-02-15T22:43:36.352Z,99.90
2019-02-15T22:46:07.404Z,99.90
2019-02-15T22:48:38.492Z,99.90
2019-02-15T22:51:09.510Z,99.90
2019-02-15T22:53:40.567Z,99.90
2019-02-15T22:56:11.656Z,99.90
2019-02-15T22:58:42.736Z,99.90
2019-02-15T23:01:16.215Z,99.90
2019-02-15T23:03:48.311Z,99.90
2019-02-15T23:06:19.403Z,99.90
2019-02-15T23:08:51.492Z,99.90
2019-02-15T23:11:22.776Z,99.90
2019-02-15T23:13:53.861Z,99.90
2019-02-15T23:16:24.849Z,99.90
2019-02-15T23:18:56.030Z,99.90
2019-02-15T23:21:27.110Z,99.90
2019-02-15T23:23:58.174Z,99.90
2019-02-15T23:26:29.259Z,99.90
2019-02-15T23:29:00.371Z,99.90
2019-02-15T23:31:31.430Z,99.90
2019-02-15T23:34:02.507Z,99.90
2019-02-15T23:36:33.595Z,99.90
2019-02-15T23:39:04.853Z,99.90
2019-02-15T23:41:37.486Z,99.90
2019-02-15T23:44:08.572Z,99.90
2019-02-15T23:46:39.623Z,99.90
2019-02-15T23:49:10.713Z,99.90
2019-02-15T23:51:41.804Z,99.90
2019-02-15T23:54:12.867Z,99.90
2019-02-15T23:56:43.946Z,99.90
2019-02-15T23:59:15.030Z,99.90
